Terminal Aerodrome Forecast
Issued by NWS Sterling, VA

Home | Current Version | Previous Version | Text Only | Print | Product List | Glossary On
Versions: 1 2 3 4 5 6 7 8 9 10 11 12 13 14 15 16 17 18 19 20 21
000
FTUS41 KLWX 190528
TAFMRB
TAF
KMRB 190528Z 1906/2006 18006KT P6SM -SHRA OVC100 WS020/21045KT
     FM190700 25019G38KT P6SM VCSH OVC060
     FM191200 29020G38KT P6SM BKN040
     FM192100 29018G31KT P6SM BKN040
     FM200300 29013G24KT P6SM SCT050=

USA.gov is the U.S. government's official web portal to all federal, state and local government web resources and services.